createdAt,value
2023-01-19T00:02:08.089Z,12.53
2023-01-19T00:04:34.702Z,12.20
2023-01-19T00:09:47.331Z,12.57
2023-01-19T00:14:57.790Z,12.77
2023-01-19T00:17:24.411Z,12.53
2023-01-19T00:19:51.131Z,12.13
2023-01-19T00:22:17.773Z,13.33
2023-01-19T00:24:45.122Z,13.97
2023-01-19T00:27:11.756Z,11.70
2023-01-19T00:29:38.429Z,13.47
2023-01-19T00:34:49.659Z,15.10
2023-01-19T00:40:00.710Z,14.53
2023-01-19T00:42:45.605Z,13.63
2023-01-19T00:45:13.508Z,14.20
2023-01-19T00:47:40.057Z,14.13
2023-01-19T00:50:07.322Z,14.20
2023-01-19T00:52:33.874Z,13.60
2023-01-19T00:55:00.480Z,14.30
2023-01-19T00:57:27.689Z,14.60
2023-01-19T00:59:54.249Z,13.83
2023-01-19T01:02:20.931Z,14.80
2023-01-19T01:04:47.675Z,14.63
2023-01-19T01:07:14.237Z,15.27
2023-01-19T01:09:40.791Z,13.97
2023-01-19T01:12:07.484Z,13.97
2023-01-19T01:14:34.395Z,15.03
2023-01-19T01:17:00.970Z,15.30
2023-01-19T01:19:27.574Z,14.67
2023-01-19T01:21:55.519Z,15.30
2023-01-19T01:24:22.217Z,15.90
2023-01-19T01:26:48.802Z,14.40
2023-01-19T01:29:15.417Z,14.00
2023-01-19T01:31:42.019Z,14.83
2023-01-19T01:34:08.987Z,15.03
2023-01-19T01:36:36.150Z,15.80
2023-01-19T01:39:02.798Z,15.47
2023-01-19T01:41:29.454Z,14.77
2023-01-19T02:16:20.724Z,11.20
2023-01-19T02:18:47.386Z,11.43
2023-01-19T02:21:14.011Z,11.23
2023-01-19T02:23:44.461Z,11.40
2023-01-19T02:26:12.358Z,10.47
2023-01-19T02:28:39.708Z,11.27
2023-01-19T02:31:06.452Z,9.40
2023-01-19T02:33:33.237Z,10.40
2023-01-19T02:36:00.326Z,10.83
2023-01-19T02:38:27.326Z,9.40
2023-01-19T02:40:57.524Z,9.60
2023-01-19T02:43:24.508Z,10.30
2023-01-19T02:45:51.129Z,10.73
2023-01-19T02:48:18.931Z,7.80
2023-01-19T02:50:49.216Z,8.67
2023-01-19T02:53:32.357Z,9.27
2023-01-19T02:56:01.595Z,9.47
2023-01-19T02:58:34.077Z,8.60
2023-01-19T03:01:33.258Z,7.77
2023-01-19T03:06:48.231Z,8.77
2023-01-19T03:09:14.873Z,9.83
2023-01-19T03:11:42.103Z,7.77
2023-01-19T03:14:15.857Z,7.77
2023-01-19T03:16:46.355Z,7.47
2023-01-19T03:19:14.603Z,7.13
2023-01-19T03:21:42.899Z,8.33
2023-01-19T03:24:09.546Z,7.57
2023-01-19T03:26:37.627Z,7.53
2023-01-19T03:29:04.226Z,7.77
2023-01-19T03:31:31.425Z,7.63
2023-01-19T03:34:00.605Z,7.60
2023-01-19T03:36:29.255Z,7.47
2023-01-19T03:38:55.814Z,7.83
2023-01-19T03:41:22.393Z,7.50
2023-01-19T03:43:49.250Z,7.60
2023-01-19T03:46:17.464Z,8.87
2023-01-19T03:48:44.753Z,9.10
2023-01-19T03:53:55.848Z,10.27
2023-01-19T03:56:25.287Z,10.87
2023-01-19T03:58:51.977Z,10.63
2023-01-19T04:01:22.800Z,9.83
2023-01-19T04:03:50.668Z,10.60
2023-01-19T04:06:17.414Z,10.33
2023-01-19T04:08:44.189Z,9.70
2023-01-19T04:11:11.415Z,9.37
2023-01-19T04:13:38.044Z,9.17
2023-01-19T04:16:04.997Z,8.77
2023-01-19T04:21:17.136Z,8.93
2023-01-19T04:23:44.529Z,9.30
2023-01-19T04:26:11.251Z,9.10
2023-01-19T04:28:37.925Z,8.53
2023-01-19T04:31:05.247Z,7.90
2023-01-19T04:33:31.942Z,8.27
2023-01-19T04:35:58.676Z,8.03
2023-01-19T04:38:25.440Z,7.80
2023-01-19T04:40:52.871Z,7.97
2023-01-19T04:43:22.421Z,7.53
2023-01-19T04:45:49.318Z,8.53
2023-01-19T04:48:16.323Z,9.43
2023-01-19T04:50:43.084Z,9.10
2023-01-19T04:53:09.752Z,8.33
2023-01-19T04:55:37.364Z,8.33
2023-01-19T04:58:03.963Z,9.67
2023-01-19T05:00:30.699Z,9.50
2023-01-19T05:02:57.488Z,9.40
2023-01-19T05:05:24.436Z,9.53
2023-01-19T05:07:51.000Z,8.77
2023-01-19T05:10:17.689Z,10.80
2023-01-19T05:12:44.393Z,10.90
2023-01-19T05:15:11.360Z,10.20
2023-01-19T05:17:38.020Z,10.67
2023-01-19T05:20:04.945Z,11.00
2023-01-19T05:25:15.994Z,11.60
2023-01-19T05:27:43.402Z,12.47
2023-01-19T05:30:10.367Z,15.33
2023-01-19T05:32:36.927Z,10.30
2023-01-19T05:35:03.636Z,11.33
2023-01-19T05:37:32.640Z,11.27
2023-01-19T05:39:59.270Z,11.23
2023-01-19T05:42:25.919Z,10.33
2023-01-19T05:44:52.936Z,11.03
2023-01-19T05:47:19.524Z,10.60
2023-01-19T05:49:53.914Z,9.90
2023-01-19T05:52:20.544Z,9.73
2023-01-19T05:54:48.249Z,9.93
2023-01-19T05:59:59.206Z,11.23
2023-01-19T06:02:28.782Z,12.67
2023-01-19T06:04:56.036Z,13.37
2023-01-19T06:07:24.396Z,13.47
2023-01-19T06:09:51.894Z,14.30
2023-01-19T06:12:18.721Z,15.80
2023-01-19T06:14:45.698Z,16.23
2023-01-19T06:17:12.501Z,16.33
2023-01-19T06:19:39.492Z,14.07
2023-01-19T06:22:06.205Z,13.03
2023-01-19T06:24:33.090Z,13.27
2023-01-19T06:27:00.460Z,13.10
2023-01-19T06:29:28.716Z,11.13
2023-01-19T06:31:56.600Z,12.27
2023-01-19T06:34:27.083Z,12.90
2023-01-19T06:36:53.854Z,16.37
2023-01-19T06:39:20.473Z,15.63
2023-01-19T06:41:47.170Z,13.87
2023-01-19T06:44:13.795Z,14.73
2023-01-19T06:46:40.430Z,14.33
2023-01-19T06:49:07.652Z,13.37
2023-01-19T06:51:34.325Z,13.00
2023-01-19T06:54:00.987Z,13.07
2023-01-19T06:56:27.861Z,12.13
2023-01-19T06:58:55.733Z,12.40
2023-01-19T07:04:06.712Z,19.67
2023-01-19T07:06:33.445Z,23.13
2023-01-19T07:09:00.322Z,21.53
2023-01-19T07:11:31.140Z,17.10
2023-01-19T07:13:58.124Z,14.53
2023-01-19T07:16:25.104Z,13.43
2023-01-19T07:18:51.762Z,13.70
2023-01-19T07:24:02.806Z,12.83
2023-01-19T07:26:29.452Z,12.40
2023-01-19T07:28:56.086Z,12.97
2023-01-19T07:31:22.921Z,23.03
2023-01-19T07:33:50.248Z,22.63
2023-01-19T07:36:17.021Z,21.90
2023-01-19T07:38:43.756Z,18.57
2023-01-19T07:43:55.738Z,14.33
2023-01-19T07:49:06.787Z,15.20
2023-01-19T07:51:33.413Z,14.93
2023-01-19T07:54:00.282Z,15.43
2023-01-19T07:56:29.938Z,15.77
2023-01-19T08:14:46.720Z,13.33
2023-01-19T08:17:14.150Z,13.57
2023-01-19T08:19:41.680Z,13.03
2023-01-19T08:24:53.082Z,13.30
2023-01-19T08:27:20.215Z,13.60
2023-01-19T08:29:47.608Z,12.83
2023-01-19T08:32:14.394Z,13.67
2023-01-19T08:34:41.413Z,13.33
2023-01-19T08:37:08.126Z,14.17
2023-01-19T08:39:35.019Z,12.63
2023-01-19T08:44:57.390Z,15.27
2023-01-19T08:47:25.172Z,19.10
2023-01-19T08:49:52.493Z,18.93
2023-01-19T08:52:19.223Z,25.67
2023-01-19T08:57:31.347Z,22.93
2023-01-19T08:59:58.011Z,16.73
2023-01-19T09:02:25.002Z,17.03
2023-01-19T09:04:52.048Z,15.60
2023-01-19T09:07:18.795Z,18.17
2023-01-19T09:09:45.402Z,16.67
2023-01-19T09:12:12.040Z,19.03
2023-01-19T09:17:22.579Z,18.83
2023-01-19T09:22:33.561Z,21.73
2023-01-19T09:27:44.721Z,24.17
2023-01-19T09:30:11.678Z,20.83
2023-01-19T09:32:38.358Z,20.83
2023-01-19T09:35:05.107Z,19.67
2023-01-19T09:40:15.692Z,17.70
2023-01-19T09:42:43.842Z,17.70
2023-01-19T09:45:40.380Z,15.03
2023-01-19T09:50:56.473Z,15.57
2023-01-19T09:53:35.124Z,15.43
2023-01-19T09:56:02.027Z,14.67
2023-01-19T09:58:28.720Z,14.43
2023-01-19T10:00:59.425Z,15.50
2023-01-19T10:03:26.200Z,15.27
2023-01-19T10:05:53.816Z,14.67
2023-01-19T10:11:06.526Z,16.87
2023-01-19T10:16:58.014Z,10.37
2023-01-19T10:19:31.187Z,9.77
2023-01-19T10:21:58.389Z,9.73
2023-01-19T10:24:41.070Z,7.33
2023-01-19T10:27:13.890Z,8.70
2023-01-19T10:29:40.909Z,8.43
2023-01-19T10:32:19.748Z,8.27
2023-01-19T10:34:46.526Z,7.20
2023-01-19T10:37:22.497Z,7.10
2023-01-19T10:39:52.797Z,7.50
2023-01-19T10:42:19.794Z,5.43
2023-01-19T10:44:46.539Z,5.93
2023-01-19T10:47:17.628Z,5.07
2023-01-19T10:49:46.098Z,4.70
2023-01-19T10:52:31.452Z,5.03
2023-01-19T10:55:00.307Z,4.97
2023-01-19T10:57:36.756Z,4.27
2023-01-19T11:00:07.036Z,3.90
2023-01-19T11:02:34.323Z,4.37
2023-01-19T11:08:16.548Z,7.00
2023-01-19T11:10:43.404Z,6.80
2023-01-19T11:13:13.479Z,7.00
2023-01-19T11:15:43.277Z,6.63
2023-01-19T11:18:22.968Z,7.27
2023-01-19T11:20:50.048Z,7.10
2023-01-19T11:23:16.719Z,6.23
2023-01-19T11:25:45.450Z,7.30
2023-01-19T11:28:30.814Z,5.63
2023-01-19T11:31:01.308Z,5.70
2023-01-19T11:33:49.828Z,5.40
2023-01-19T11:36:19.178Z,5.57
2023-01-19T11:38:46.148Z,4.23
2023-01-19T11:41:20.282Z,3.67
2023-01-19T11:43:49.285Z,3.37
2023-01-19T11:46:16.235Z,3.83
2023-01-19T11:48:43.789Z,3.73
2023-01-19T11:51:12.980Z,3.47
2023-01-19T11:53:39.615Z,3.60
2023-01-19T11:56:12.568Z,3.47
2023-01-19T11:58:39.871Z,2.80
2023-01-19T12:01:12.795Z,2.60
2023-01-19T12:03:41.219Z,1.77
2023-01-19T12:06:09.398Z,2.23
2023-01-19T12:08:37.233Z,2.60
2023-01-19T12:11:04.284Z,2.43
2023-01-19T12:13:31.797Z,2.60
2023-01-19T12:16:03.215Z,2.40
2023-01-19T12:18:30.730Z,2.43
2023-01-19T12:20:58.877Z,2.97
2023-01-19T12:23:30.290Z,2.40
2023-01-19T12:26:00.307Z,2.60
2023-01-19T12:28:28.939Z,2.80
2023-01-19T12:30:55.669Z,2.83
2023-01-19T12:33:23.161Z,2.70
2023-01-19T12:35:57.229Z,2.50
2023-01-19T12:38:30.342Z,2.43
2023-01-19T12:44:08.830Z,2.20
2023-01-19T12:46:35.610Z,1.73
2023-01-19T12:49:20.850Z,1.87
2023-01-19T12:51:47.668Z,2.60
2023-01-19T12:54:33.192Z,2.40
2023-01-19T12:57:01.216Z,2.70
2023-01-19T12:59:28.513Z,2.50
2023-01-19T13:02:13.687Z,2.93
2023-01-19T13:04:40.378Z,3.23
2023-01-19T13:07:10.382Z,3.63
2023-01-19T13:09:38.230Z,2.93
2023-01-19T13:12:14.020Z,2.83
2023-01-19T13:14:43.669Z,3.00
2023-01-19T13:17:29.953Z,2.60
2023-01-19T13:23:16.084Z,3.00
2023-01-19T13:25:44.454Z,3.53
2023-01-19T13:28:12.068Z,2.93
2023-01-19T13:30:40.396Z,3.23
2023-01-19T13:33:10.539Z,3.73
2023-01-19T13:35:37.510Z,3.90
2023-01-19T13:38:04.122Z,3.20
2023-01-19T13:40:40.026Z,3.30
2023-01-19T13:43:07.493Z,3.30
2023-01-19T13:45:34.958Z,3.23
2023-01-19T13:48:02.879Z,2.67
2023-01-19T13:50:30.966Z,3.00
2023-01-19T13:52:58.994Z,2.77
2023-01-19T13:55:26.477Z,3.00
2023-01-19T13:58:14.681Z,3.00
2023-01-19T14:00:47.752Z,3.30
2023-01-19T14:03:21.412Z,3.07
2023-01-19T14:08:37.225Z,3.30
2023-01-19T14:11:04.328Z,3.70
2023-01-19T14:13:31.897Z,3.63
2023-01-19T14:15:59.527Z,3.67
2023-01-19T14:21:12.606Z,3.37
2023-01-19T14:24:02.338Z,3.57
2023-01-19T14:26:38.132Z,3.80
2023-01-19T14:32:02.026Z,4.70
2023-01-19T14:37:29.141Z,6.50
2023-01-19T14:40:01.075Z,8.83
2023-01-19T14:42:28.928Z,8.13
2023-01-19T14:44:56.009Z,8.07
2023-01-19T14:47:35.823Z,7.00
2023-01-19T14:50:05.188Z,7.37
2023-01-19T14:52:32.713Z,8.53
2023-01-19T14:54:59.478Z,9.23
2023-01-19T14:57:26.291Z,9.83
2023-01-19T14:59:53.481Z,10.37
2023-01-19T15:05:04.624Z,10.63
2023-01-19T15:07:32.492Z,8.93
2023-01-19T15:09:59.294Z,10.10
2023-01-19T15:12:26.253Z,9.87
2023-01-19T15:14:53.129Z,9.37
2023-01-19T15:17:25.757Z,12.80
2023-01-19T15:19:56.993Z,13.87
2023-01-19T15:22:26.833Z,11.57
2023-01-19T15:24:57.921Z,8.97
2023-01-19T15:27:25.240Z,8.50
2023-01-19T15:29:51.882Z,10.43
2023-01-19T15:32:18.493Z,11.03
2023-01-19T15:34:45.061Z,11.40
2023-01-19T15:37:11.708Z,11.33
2023-01-19T15:39:39.778Z,11.40
2023-01-19T15:42:10.022Z,13.53
2023-01-19T15:44:36.734Z,11.90
2023-01-19T15:47:03.427Z,10.93
2023-01-19T15:49:30.992Z,10.23
2023-01-19T15:51:57.627Z,9.73
2023-01-19T15:57:08.903Z,15.70
2023-01-19T15:59:35.595Z,15.67
2023-01-19T16:02:02.745Z,16.13
2023-01-19T16:04:29.512Z,16.40
2023-01-19T16:09:40.503Z,15.17
2023-01-19T16:12:07.747Z,15.30
2023-01-19T16:14:34.613Z,15.83
2023-01-19T16:17:01.956Z,15.60
2023-01-19T16:19:28.724Z,15.50
2023-01-19T16:21:55.543Z,16.27
2023-01-19T16:24:23.205Z,16.73
2023-01-19T16:26:50.054Z,17.10
2023-01-19T16:29:16.807Z,16.40
2023-01-19T16:31:46.012Z,18.60
2023-01-19T16:34:13.079Z,17.93
2023-01-19T16:36:40.450Z,19.33
2023-01-19T16:39:08.271Z,21.30
2023-01-19T16:44:19.800Z,28.00
2023-01-19T16:49:31.294Z,26.47
2023-01-19T16:51:58.717Z,26.37
2023-01-19T16:54:26.158Z,27.27
2023-01-19T16:56:52.946Z,28.43
2023-01-19T16:59:19.832Z,28.27
2023-01-19T17:01:46.886Z,26.03
2023-01-19T17:04:13.861Z,25.20
2023-01-19T17:06:40.550Z,25.00
2023-01-19T17:09:08.522Z,26.67
2023-01-19T17:11:35.602Z,28.37
2023-01-19T17:14:03.826Z,26.77
2023-01-19T17:16:30.948Z,21.23
2023-01-19T17:18:57.803Z,20.27
2023-01-19T17:21:24.469Z,20.73
2023-01-19T17:23:51.907Z,20.53
2023-01-19T17:26:18.581Z,21.80
2023-01-19T17:31:30.230Z,23.57
2023-01-19T17:36:41.610Z,21.43
2023-01-19T17:41:55.857Z,23.17
2023-01-19T17:44:23.439Z,23.20
2023-01-19T17:46:51.069Z,23.83
2023-01-19T17:49:17.876Z,25.33
2023-01-19T17:54:29.773Z,25.20
2023-01-19T17:59:43.882Z,25.60
2023-01-19T18:02:10.935Z,24.67
2023-01-19T18:04:39.868Z,24.10
2023-01-19T18:07:07.190Z,23.10
2023-01-19T18:09:34.468Z,23.77
2023-01-19T18:12:01.636Z,23.73
2023-01-19T18:14:28.409Z,25.67
2023-01-19T18:16:55.125Z,23.77
2023-01-19T18:19:22.556Z,26.53
2023-01-19T18:21:49.283Z,25.93
2023-01-19T18:24:16.467Z,25.70
2023-01-19T18:26:43.134Z,27.73
2023-01-19T18:29:09.976Z,26.93
2023-01-19T18:34:20.818Z,27.00
2023-01-19T18:36:47.598Z,25.83
2023-01-19T18:39:14.856Z,26.07
2023-01-19T18:41:44.511Z,28.20
2023-01-19T18:44:11.870Z,28.50
2023-01-19T18:46:38.897Z,29.73
2023-01-19T18:49:05.982Z,29.20
2023-01-19T18:51:33.075Z,28.83
2023-01-19T18:54:00.219Z,29.97
2023-01-19T18:56:27.334Z,29.17
2023-01-19T18:58:54.583Z,30.67
2023-01-19T19:01:25.401Z,32.67
2023-01-19T19:03:52.548Z,32.37
2023-01-19T19:06:21.077Z,32.50
2023-01-19T19:08:48.820Z,30.60
2023-01-19T19:11:15.651Z,31.13
2023-01-19T19:16:27.407Z,30.77
2023-01-19T19:18:54.158Z,29.90
2023-01-19T19:21:25.581Z,31.37
2023-01-19T19:23:56.129Z,32.67
2023-01-19T19:26:26.272Z,31.63
2023-01-19T19:28:53.034Z,30.90
2023-01-19T19:34:04.749Z,30.23
2023-01-19T19:36:32.768Z,30.83
2023-01-19T19:38:59.658Z,30.37
2023-01-19T19:41:29.601Z,31.53
2023-01-19T19:47:00.488Z,30.37
2023-01-19T19:49:27.521Z,32.67
2023-01-19T19:51:54.339Z,31.57
2023-01-19T19:54:21.087Z,33.53
2023-01-19T19:56:50.426Z,34.20
2023-01-19T19:59:18.171Z,32.97
2023-01-19T20:01:48.088Z,31.93
2023-01-19T20:07:00.220Z,33.57
2023-01-19T20:12:11.401Z,31.47
2023-01-19T20:14:38.037Z,32.80
2023-01-19T20:17:05.822Z,32.60
2023-01-19T20:19:32.713Z,33.40
2023-01-19T20:24:43.699Z,33.50
2023-01-19T20:29:59.347Z,31.87
2023-01-19T20:32:27.123Z,32.33
2023-01-19T20:34:53.790Z,30.67
2023-01-19T20:37:21.136Z,31.40
2023-01-19T20:39:48.498Z,30.23
2023-01-19T20:42:18.930Z,32.07
2023-01-19T20:44:45.588Z,32.60
2023-01-19T20:49:56.494Z,30.87
2023-01-19T20:55:09.569Z,33.20
2023-01-19T21:00:20.918Z,31.67
2023-01-19T21:05:33.518Z,24.60
2023-01-19T21:10:45.893Z,22.10
2023-01-19T21:15:57.907Z,23.40
2023-01-19T21:18:25.142Z,18.90
2023-01-19T21:20:51.876Z,22.13
2023-01-19T21:23:19.939Z,23.33
2023-01-19T21:25:51.509Z,15.23
2023-01-19T21:28:18.661Z,20.90
2023-01-19T21:30:45.290Z,19.03
2023-01-19T21:33:12.626Z,16.80
2023-01-19T21:35:39.646Z,18.67
2023-01-19T21:38:06.442Z,17.30
2023-01-19T21:40:33.055Z,15.70
2023-01-19T21:42:59.769Z,16.87
2023-01-19T21:45:28.886Z,15.37
2023-01-19T21:47:55.697Z,16.93
2023-01-19T21:50:22.382Z,18.17
2023-01-19T21:52:49.079Z,16.67
2023-01-19T21:58:00.195Z,17.87
2023-01-19T22:00:27.307Z,15.43
2023-01-19T22:03:03.433Z,14.53
2023-01-19T22:08:18.250Z,12.33
2023-01-19T22:10:44.869Z,12.43
2023-01-19T22:13:11.608Z,14.67
2023-01-19T22:15:38.432Z,14.60
2023-01-19T22:18:05.215Z,15.33
2023-01-19T22:20:31.795Z,13.97
2023-01-19T22:22:58.665Z,16.23
2023-01-19T22:25:27.886Z,16.23
2023-01-19T22:27:54.968Z,14.07
2023-01-19T22:30:24.636Z,13.90
2023-01-19T22:35:37.767Z,11.90
2023-01-19T22:40:48.664Z,12.87
2023-01-19T22:45:59.491Z,13.70
2023-01-19T22:48:26.122Z,13.77
2023-01-19T22:50:55.872Z,14.40
2023-01-19T22:53:22.450Z,13.77
2023-01-19T22:55:49.086Z,14.17
2023-01-19T22:58:15.685Z,12.47
2023-01-19T23:00:42.598Z,12.13
2023-01-19T23:03:09.170Z,11.47
2023-01-19T23:05:36.506Z,12.10
2023-01-19T23:08:03.226Z,11.93
2023-01-19T23:13:13.986Z,13.03
2023-01-19T23:18:26.175Z,11.67
2023-01-19T23:23:37.140Z,13.17
2023-01-19T23:28:48.396Z,14.63
2023-01-19T23:34:01.865Z,13.17
2023-01-19T23:36:29.455Z,12.37
2023-01-19T23:38:56.775Z,11.53
2023-01-19T23:41:23.607Z,12.13
2023-01-19T23:43:50.381Z,12.07
2023-01-19T23:46:17.215Z,13.07
2023-01-19T23:48:43.904Z,12.90
2023-01-19T23:51:11.913Z,12.03
2023-01-19T23:53:38.510Z,11.63
2023-01-19T23:56:24.176Z,12.53
2023-01-19T23:58:54.600Z,11.10
